Time;durP1;ratioP1;P1;durP2;ratioP2;P2;SDS_P1;SDS_P2;PMS_P1;PMS_P2;Temp;Humidity;BMP_temperature;BMP_pressure;BME280_temperature;BME280_humidity;BME280_pressure;Samples;Min_cycle;Max_cycle;Signal;HPM_P1;HPM_P2
2024/04/10 00:02:02;;;;;;;52.20;22.55;;;;;;;;;;5322956;26;20052;-57
2024/04/10 00:04:28;;;;;;;50.63;21.90;;;;;;;;;;5322952;26;20549;-58
2024/04/10 00:06:55;;;;;;;49.95;21.40;;;;;;;;;;5322613;26;20070;-57
2024/04/10 00:09:21;;;;;;;50.30;20.20;;;;;;;;;;5351197;26;20004;-54
2024/04/10 00:11:48;;;;;;;43.67;18.80;;;;;;;;;;5322167;26;20064;-57
2024/04/10 00:14:15;;;;;;;42.83;18.65;;;;;;;;;;5323327;26;20004;-57
2024/04/10 00:16:41;;;;;;;40.65;18.15;;;;;;;;;;5321161;26;20013;-61
2024/04/10 00:19:08;;;;;;;40.03;16.98;;;;;;;;;;5322989;26;20079;-54
2024/04/10 00:21:35;;;;;;;41.47;18.25;;;;;;;;;;5321148;26;20001;-59
2024/04/10 00:24:02;;;;;;;39.85;17.95;;;;;;;;;;5323088;26;20485;-57
2024/04/10 00:26:28;;;;;;;40.45;18.17;;;;;;;;;;5322370;26;20005;-55
2024/04/10 00:28:55;;;;;;;36.30;16.23;;;;;;;;;;5321130;26;20049;-58
2024/04/10 00:31:22;;;;;;;35.53;16.23;;;;;;;;;;5322132;26;20049;-57
2024/04/10 00:33:48;;;;;;;34.50;14.48;;;;;;;;;;5320556;26;20048;-60
2024/04/10 00:36:15;;;;;;;35.35;15.82;;;;;;;;;;5323410;26;19997;-54
2024/04/10 00:38:42;;;;;;;36.60;16.58;;;;;;;;;;5322106;26;19997;-55
2024/04/10 00:41:08;;;;;;;32.83;16.88;;;;;;;;;;5323620;26;20005;-57
2024/04/10 00:43:35;;;;;;;31.90;14.63;;;;;;;;;;5318487;26;20442;-53
2024/04/10 00:46:09;;;;;;;36.50;16.50;;;;;;;;;;5321385;26;20009;-54
2024/04/10 00:48:36;;;;;;;32.03;15.23;;;;;;;;;;5322191;26;20020;-56
2024/04/10 00:51:03;;;;;;;32.60;15.80;;;;;;;;;;5322977;26;20049;-56
2024/04/10 00:53:30;;;;;;;33.67;15.30;;;;;;;;;;5320940;26;20632;-57
2024/04/10 00:55:56;;;;;;;30.88;15.30;;;;;;;;;;5321511;26;20060;-55
2024/04/10 00:58:24;;;;;;;30.88;15.30;;;;;;;;;;5321834;26;20048;-51
2024/04/10 01:00:53;;;;;;;30.20;15.23;;;;;;;;;;5320982;26;20004;-55
2024/04/10 01:03:21;;;;;;;29.10;14.15;;;;;;;;;;5320979;26;20421;-56
2024/04/10 01:06:02;;;;;;;28.88;13.35;;;;;;;;;;5288650;26;20040;-56
2024/04/10 01:08:29;;;;;;;26.60;12.25;;;;;;;;;;5320696;26;20412;-53
2024/04/10 01:11:00;;;;;;;28.50;12.82;;;;;;;;;;5352339;26;20001;-55
2024/04/10 01:13:28;;;;;;;27.30;13.48;;;;;;;;;;5347658;26;20005;-55
2024/04/10 01:16:14;;;;;;;25.15;12.05;;;;;;;;;;5328735;26;20028;-56
2024/04/10 01:19:03;;;;;;;22.48;11.10;;;;;;;;;;5318990;26;20071;-54
2024/04/10 01:21:30;;;;;;;23.70;10.55;;;;;;;;;;5347249;26;20013;-56
2024/04/10 01:24:01;;;;;;;24.85;11.70;;;;;;;;;;5319831;26;20021;-53
2024/04/10 01:26:30;;;;;;;24.00;11.77;;;;;;;;;;5318398;26;20013;-54
2024/04/10 01:28:57;;;;;;;20.92;10.40;;;;;;;;;;5291063;26;20327;-55
2024/04/10 01:31:26;;;;;;;19.13;9.65;;;;;;;;;;5317899;26;20476;-56
2024/04/10 01:33:54;;;;;;;20.08;10.27;;;;;;;;;;5319039;26;20020;-56
2024/04/10 01:36:22;;;;;;;20.60;9.93;;;;;;;;;;5278130;26;20625;-52
2024/04/10 01:38:50;;;;;;;22.10;11.15;;;;;;;;;;5319768;26;20018;-53
2024/04/10 01:41:17;;;;;;;25.42;12.93;;;;;;;;;;5320592;26;20032;-60
2024/04/10 01:43:44;;;;;;;27.23;13.52;;;;;;;;;;5319126;26;21627;-53
2024/04/10 01:46:11;;;;;;;29.02;13.60;;;;;;;;;;5318052;26;20001;-54
2024/04/10 01:48:38;;;;;;;30.38;15.55;;;;;;;;;;5319461;26;20118;-50
2024/04/10 01:51:25;;;;;;;30.65;14.52;;;;;;;;;;5317055;26;20025;-52
2024/04/10 01:53:51;;;;;;;28.45;14.50;;;;;;;;;;5318298;26;21057;-53
2024/04/10 01:57:51;;;;;;;36.35;18.67;;;;;;;;;;5445425;25;20324;-49
2024/04/10 02:00:22;;;;;;;39.88;20.00;;;;;;;;;;5440158;25;20022;-48
2024/04/10 02:02:49;;;;;;;45.47;21.60;;;;;;;;;;5440988;25;19991;-55
2024/04/10 02:05:16;;;;;;;43.15;22.42;;;;;;;;;;5440336;25;20327;-54
2024/04/10 02:07:42;;;;;;;45.15;23.00;;;;;;;;;;5439375;25;20112;-55
2024/04/10 02:10:09;;;;;;;46.45;24.23;;;;;;;;;;5440995;25;20006;-55
2024/04/10 02:12:35;;;;;;;48.22;25.42;;;;;;;;;;5438033;25;20007;-52
2024/04/10 02:15:03;;;;;;;48.55;24.27;;;;;;;;;;5437428;25;20013;-55
2024/04/10 02:17:29;;;;;;;45.15;23.65;;;;;;;;;;5439201;25;20008;-53
2024/04/10 02:19:56;;;;;;;45.10;23.77;;;;;;;;;;5440136;25;20079;-58
2024/04/10 02:22:23;;;;;;;45.85;24.25;;;;;;;;;;5439154;25;19995;-58
2024/04/10 02:24:51;;;;;;;44.97;24.70;;;;;;;;;;5439995;25;20379;-59
2024/04/10 02:27:17;;;;;;;47.25;24.17;;;;;;;;;;5441233;25;20002;-50
2024/04/10 02:29:44;;;;;;;45.58;24.17;;;;;;;;;;5439651;25;19999;-52
2024/04/10 02:32:11;;;;;;;45.15;23.08;;;;;;;;;;5439460;25;20048;-53
2024/04/10 02:34:37;;;;;;;42.53;23.67;;;;;;;;;;5439683;25;20543;-53
2024/04/10 02:37:04;;;;;;;44.50;23.88;;;;;;;;;;5441292;25;20005;-50
2024/04/10 02:39:31;;;;;;;43.83;22.95;;;;;;;;;;5441490;25;20009;-53
2024/04/10 02:41:57;;;;;;;40.80;22.38;;;;;;;;;;5438968;25;20003;-53
2024/04/10 02:44:24;;;;;;;37.78;20.33;;;;;;;;;;5441584;25;20443;-51
2024/04/10 02:46:51;;;;;;;39.08;21.67;;;;;;;;;;5440091;25;20003;-56
2024/04/10 02:49:18;;;;;;;41.40;22.10;;;;;;;;;;5441271;25;20079;-55
2024/04/10 02:51:45;;;;;;;39.38;21.73;;;;;;;;;;5439310;25;20007;-55
2024/04/10 02:54:11;;;;;;;43.40;22.80;;;;;;;;;;5440062;25;20033;-59
2024/04/10 02:56:38;;;;;;;49.75;26.45;;;;;;;;;;5438825;25;22394;-58
2024/04/10 02:59:04;;;;;;;51.58;28.92;;;;;;;;;;5437754;25;20039;-57
2024/04/10 03:01:31;;;;;;;50.47;28.55;;;;;;;;;;5437709;25;20544;-57
2024/04/10 03:03:58;;;;;;;54.13;29.52;;;;;;;;;;5440096;25;20009;-56
2024/04/10 03:06:24;;;;;;;55.72;29.23;;;;;;;;;;5440181;25;20155;-57
2024/04/10 03:08:51;;;;;;;56.78;31.65;;;;;;;;;;5425559;25;20584;-55
2024/04/10 03:11:18;;;;;;;53.25;31.65;;;;;;;;;;5423583;25;20021;-58
2024/04/10 03:13:45;;;;;;;53.55;30.20;;;;;;;;;;5426927;25;20557;-58
2024/04/10 03:16:12;;;;;;;56.10;32.28;;;;;;;;;;5422434;26;19995;-56
2024/04/10 03:18:39;;;;;;;54.10;31.20;;;;;;;;;;5422862;25;20030;-56
2024/04/10 03:21:06;;;;;;;56.50;31.85;;;;;;;;;;5423773;25;20003;-57
2024/04/10 03:23:33;;;;;;;53.38;30.40;;;;;;;;;;5422164;25;20014;-59
2024/04/10 03:26:03;;;;;;;51.55;29.27;;;;;;;;;;5423717;25;20497;-57
2024/04/10 03:28:30;;;;;;;51.35;30.65;;;;;;;;;;5424798;25;20027;-59
2024/04/10 03:30:57;;;;;;;51.30;29.52;;;;;;;;;;5422565;25;20035;-61
2024/04/10 03:33:25;;;;;;;51.08;29.70;;;;;;;;;;5423197;25;20009;-49
2024/04/10 03:35:53;;;;;;;47.72;27.98;;;;;;;;;;5425245;25;20122;-49
2024/04/10 03:38:20;;;;;;;48.95;28.23;;;;;;;;;;5423301;26;19999;-58
2024/04/10 03:40:47;;;;;;;45.22;26.67;;;;;;;;;;5424384;25;20066;-57
2024/04/10 03:43:14;;;;;;;43.95;25.60;;;;;;;;;;5409333;26;20124;-56
2024/04/10 03:45:41;;;;;;;41.03;24.75;;;;;;;;;;5423981;25;20050;-56
2024/04/10 03:48:08;;;;;;;46.70;26.27;;;;;;;;;;5423647;25;19995;-55
2024/04/10 03:50:34;;;;;;;44.20;25.92;;;;;;;;;;5425226;25;20007;-55
2024/04/10 03:53:01;;;;;;;40.95;23.77;;;;;;;;;;5423159;25;20523;-57
2024/04/10 03:55:28;;;;;;;39.83;23.00;;;;;;;;;;5423030;25;20427;-55
2024/04/10 03:57:54;;;;;;;38.47;23.25;;;;;;;;;;5425339;25;20018;-52
2024/04/10 04:00:21;;;;;;;36.70;22.27;;;;;;;;;;5424156;25;20055;-53
2024/04/10 04:02:48;;;;;;;36.72;21.98;;;;;;;;;;5421982;25;20077;-55
2024/04/10 04:05:14;;;;;;;35.75;21.77;;;;;;;;;;5423508;26;20038;-56
2024/04/10 04:07:41;;;;;;;36.03;20.25;;;;;;;;;;5424372;25;20016;-56
2024/04/10 04:10:08;;;;;;;33.20;20.50;;;;;;;;;;5422905;25;20004;-58
2024/04/10 04:12:34;;;;;;;31.98;19.38;;;;;;;;;;5420598;25;20007;-57
2024/04/10 04:15:02;;;;;;;34.33;21.30;;;;;;;;;;5424166;25;20476;-56
2024/04/10 04:17:29;;;;;;;33.42;19.73;;;;;;;;;;5422753;25;20447;-55
2024/04/10 04:19:55;;;;;;;31.02;17.90;;;;;;;;;;5425297;25;20007;-56
2024/04/10 04:22:22;;;;;;;29.85;17.40;;;;;;;;;;5424089;25;20018;-55
2024/04/10 04:24:49;;;;;;;26.83;16.85;;;;;;;;;;5421129;26;20109;-57
2024/04/10 04:27:17;;;;;;;26.42;16.58;;;;;;;;;;5423396;25;20014;-58
2024/04/10 04:29:46;;;;;;;24.45;15.02;;;;;;;;;;5424942;25;20348;-56
2024/04/10 04:32:13;;;;;;;26.08;16.20;;;;;;;;;;5422771;25;20020;-58
2024/04/10 04:34:40;;;;;;;24.75;15.05;;;;;;;;;;5424442;25;20316;-57
2024/04/10 04:37:06;;;;;;;26.35;15.57;;;;;;;;;;5424707;25;19995;-57
2024/04/10 04:39:34;;;;;;;23.75;14.68;;;;;;;;;;5421097;25;20350;-58
2024/04/10 04:42:00;;;;;;;21.02;13.18;;;;;;;;;;5423322;25;20487;-57
2024/04/10 04:44:27;;;;;;;22.73;13.75;;;;;;;;;;5423006;25;20014;-55
2024/04/10 04:46:54;;;;;;;21.35;12.93;;;;;;;;;;5427561;25;20344;-57
2024/04/10 04:49:21;;;;;;;20.33;12.32;;;;;;;;;;5418130;25;20017;-56
2024/04/10 04:51:48;;;;;;;19.33;12.05;;;;;;;;;;5425499;25;19999;-58
2024/04/10 04:54:14;;;;;;;18.58;11.80;;;;;;;;;;5425637;25;20446;-57
2024/04/10 04:56:41;;;;;;;19.40;11.77;;;;;;;;;;5422440;25;20003;-59
2024/04/10 04:59:10;;;;;;;17.85;11.57;;;;;;;;;;5423047;25;20013;-55
2024/04/10 05:01:36;;;;;;;16.50;9.98;;;;;;;;;;5423022;25;19999;-57
2024/04/10 05:06:48;;;;;;;15.15;9.48;;;;;;;;;;5422067;25;22281;-56
2024/04/10 05:09:15;;;;;;;13.95;9.23;;;;;;;;;;5425751;25;20435;-57
2024/04/10 05:11:41;;;;;;;13.80;9.10;;;;;;;;;;5420228;25;20034;-56
2024/04/10 05:14:08;;;;;;;12.63;8.18;;;;;;;;;;5422623;25;19999;-56
2024/04/10 05:16:35;;;;;;;12.55;8.43;;;;;;;;;;5422816;25;20019;-50
2024/04/10 05:19:06;;;;;;;12.38;8.05;;;;;;;;;;5421989;25;20532;-56
2024/04/10 05:21:33;;;;;;;14.57;8.90;;;;;;;;;;5421938;25;19995;-54
2024/04/10 05:23:59;;;;;;;11.80;7.30;;;;;;;;;;5423530;25;20014;-56
2024/04/10 05:26:26;;;;;;;11.65;7.50;;;;;;;;;;5423533;25;20015;-56
2024/04/10 05:28:53;;;;;;;12.00;7.78;;;;;;;;;;5421790;25;20007;-56
2024/04/10 05:31:19;;;;;;;9.88;6.78;;;;;;;;;;5417381;25;20023;-60
2024/04/10 05:33:46;;;;;;;10.40;7.47;;;;;;;;;;5420310;25;20734;-56
2024/04/10 05:36:12;;;;;;;10.52;6.65;;;;;;;;;;5422831;25;19991;-50
2024/04/10 05:38:39;;;;;;;9.55;6.35;;;;;;;;;;5421121;25;20418;-54
2024/04/10 05:41:06;;;;;;;9.48;6.07;;;;;;;;;;5421631;25;20047;-57
2024/04/10 05:43:32;;;;;;;9.18;6.13;;;;;;;;;;5423619;25;20428;-56
2024/04/10 05:45:59;;;;;;;9.05;5.85;;;;;;;;;;5423478;25;20055;-57
2024/04/10 05:48:26;;;;;;;8.60;5.43;;;;;;;;;;5422315;25;19998;-57
2024/04/10 05:50:58;;;;;;;8.35;5.47;;;;;;;;;;5421976;25;20034;-59
2024/04/10 05:53:24;;;;;;;7.35;5.20;;;;;;;;;;5422221;25;20107;-57
2024/04/10 05:55:51;;;;;;;6.80;4.50;;;;;;;;;;5424710;25;20127;-57
2024/04/10 05:58:18;;;;;;;6.25;4.70;;;;;;;;;;5414337;26;20158;-56
2024/04/10 06:00:44;;;;;;;6.97;4.50;;;;;;;;;;5421933;25;19995;-57
2024/04/10 06:03:11;;;;;;;6.28;4.00;;;;;;;;;;5421722;25;20014;-53
2024/04/10 06:05:38;;;;;;;6.30;4.70;;;;;;;;;;5420982;25;20405;-55
2024/04/10 06:08:04;;;;;;;7.20;4.65;;;;;;;;;;5423837;25;20007;-52
2024/04/10 06:10:31;;;;;;;5.45;3.85;;;;;;;;;;5421616;25;20024;-53
2024/04/10 06:12:58;;;;;;;5.47;3.40;;;;;;;;;;5418927;25;20113;-56
2024/04/10 06:15:24;;;;;;;5.22;3.35;;;;;;;;;;5413532;25;20009;-57
2024/04/10 06:17:51;;;;;;;5.15;3.35;;;;;;;;;;5420280;25;19998;-55
2024/04/10 06:20:18;;;;;;;5.35;3.55;;;;;;;;;;5424401;25;20376;-57
2024/04/10 06:22:45;;;;;;;4.28;3.30;;;;;;;;;;5419574;25;20013;-57
2024/04/10 06:25:12;;;;;;;4.53;3.22;;;;;;;;;;5422990;25;20030;-58
2024/04/10 06:27:39;;;;;;;4.30;3.15;;;;;;;;;;5421241;25;20018;-55
2024/04/10 06:30:05;;;;;;;3.75;2.67;;;;;;;;;;5422697;25;20007;-54
2024/04/10 06:32:32;;;;;;;3.97;2.42;;;;;;;;;;5421355;25;20004;-55
2024/04/10 06:34:59;;;;;;;3.15;2.30;;;;;;;;;;5421356;25;20370;-56
2024/04/10 06:37:25;;;;;;;3.22;2.30;;;;;;;;;;5418557;25;20879;-56
2024/04/10 06:39:52;;;;;;;3.65;2.45;;;;;;;;;;5423777;25;20015;-56
2024/04/10 06:42:19;;;;;;;3.60;2.30;;;;;;;;;;5421185;25;20033;-55
2024/04/10 06:44:45;;;;;;;3.00;2.13;;;;;;;;;;5422989;25;20095;-54
2024/04/10 06:47:13;;;;;;;3.03;2.20;;;;;;;;;;5426049;25;21378;-55
2024/04/10 06:49:39;;;;;;;3.17;2.03;;;;;;;;;;5425096;25;20042;-54
2024/04/10 06:52:06;;;;;;;2.78;2.00;;;;;;;;;;5422900;25;22422;-52
2024/04/10 06:54:32;;;;;;;3.67;2.05;;;;;;;;;;5422844;25;20002;-52
2024/04/10 06:56:59;;;;;;;2.53;1.73;;;;;;;;;;5423325;25;20458;-50
2024/04/10 06:59:26;;;;;;;2.67;1.83;;;;;;;;;;5424396;25;19999;-51
2024/04/10 07:01:52;;;;;;;2.83;1.73;;;;;;;;;;5425164;25;20488;-56
2024/04/10 07:04:20;;;;;;;2.30;1.50;;;;;;;;;;5426392;25;20006;-52
2024/04/10 07:06:47;;;;;;;2.42;1.60;;;;;;;;;;5424035;25;20013;-52
2024/04/10 07:09:14;;;;;;;2.40;1.70;;;;;;;;;;5424857;26;20117;-51
2024/04/10 07:11:40;;;;;;;2.50;1.58;;;;;;;;;;5423883;25;20795;-54
2024/04/10 07:14:07;;;;;;;2.08;1.38;;;;;;;;;;5425397;25;19999;-48
2024/04/10 07:16:33;;;;;;;1.50;1.23;;;;;;;;;;5425132;25;20006;-51
2024/04/10 07:19:00;;;;;;;2.13;1.30;;;;;;;;;;5426517;25;20006;-51
2024/04/10 07:21:27;;;;;;;1.38;1.13;;;;;;;;;;5422283;25;20003;-50
2024/04/10 07:23:53;;;;;;;1.58;1.20;;;;;;;;;;5422344;26;20038;-50
2024/04/10 07:26:21;;;;;;;1.75;1.20;;;;;;;;;;5423187;25;20456;-50
2024/04/10 07:28:50;;;;;;;1.63;1.20;;;;;;;;;;5422984;25;20017;-53
2024/04/10 07:31:19;;;;;;;1.73;1.15;;;;;;;;;;5424713;26;20429;-52
2024/04/10 07:33:45;;;;;;;1.73;1.05;;;;;;;;;;5425818;25;20450;-51
2024/04/10 07:36:13;;;;;;;1.33;1.10;;;;;;;;;;5423583;25;20110;-51
2024/04/10 07:38:40;;;;;;;1.77;1.10;;;;;;;;;;5424383;25;20332;-49
2024/04/10 07:41:07;;;;;;;1.40;1.00;;;;;;;;;;5422128;25;20011;-51
2024/04/10 07:43:34;;;;;;;1.77;0.95;;;;;;;;;;5423599;25;20008;-52
2024/04/10 07:46:11;;;;;;;1.20;0.90;;;;;;;;;;5426028;25;20015;-51
2024/04/10 07:48:38;;;;;;;1.17;0.90;;;;;;;;;;5423504;25;20003;-52
2024/04/10 07:51:07;;;;;;;1.20;0.80;;;;;;;;;;5422451;25;20014;-51
2024/04/10 07:53:34;;;;;;;1.05;0.90;;;;;;;;;;5423773;25;20019;-49
2024/04/10 07:56:01;;;;;;;0.68;0.60;;;;;;;;;;5424126;25;20328;-51
2024/04/10 07:58:28;;;;;;;1.00;0.70;;;;;;;;;;5423566;25;20007;-53
2024/04/10 08:00:59;;;;;;;1.00;0.80;;;;;;;;;;5422569;25;20003;-60
2024/04/10 08:03:26;;;;;;;1.10;0.80;;;;;;;;;;5415178;25;20007;-57
2024/04/10 08:05:54;;;;;;;1.38;0.82;;;;;;;;;;5423436;25;20021;-58
2024/04/10 08:08:21;;;;;;;1.13;0.70;;;;;;;;;;5425908;25;20083;-55
2024/04/10 08:10:48;;;;;;;0.90;0.60;;;;;;;;;;5419650;25;20472;-55
2024/04/10 08:13:15;;;;;;;0.98;0.70;;;;;;;;;;5420082;25;20022;-54
2024/04/10 08:15:45;;;;;;;0.75;0.60;;;;;;;;;;5409636;25;20011;-56
2024/04/10 08:18:13;;;;;;;0.93;0.70;;;;;;;;;;5423774;25;20444;-55
2024/04/10 08:20:40;;;;;;;0.88;0.75;;;;;;;;;;5422127;25;20087;-56
2024/04/10 08:23:06;;;;;;;1.23;0.50;;;;;;;;;;5422477;25;20010;-57
2024/04/10 08:25:33;;;;;;;1.08;0.70;;;;;;;;;;5423675;25;20091;-52
2024/04/10 08:27:59;;;;;;;0.77;0.68;;;;;;;;;;5421244;25;20013;-55
2024/04/10 08:30:26;;;;;;;0.90;0.50;;;;;;;;;;5416579;26;20008;-52
2024/04/10 08:32:53;;;;;;;0.68;0.50;;;;;;;;;;5424253;25;20773;-53
2024/04/10 08:35:19;;;;;;;0.85;0.63;;;;;;;;;;5421753;25;20035;-51
2024/04/10 08:37:46;;;;;;;0.82;0.60;;;;;;;;;;5421590;25;20324;-54
2024/04/10 08:40:13;;;;;;;0.68;0.43;;;;;;;;;;5426671;25;20022;-53
2024/04/10 08:42:42;;;;;;;0.57;0.50;;;;;;;;;;5421462;25;20091;-53
2024/04/10 08:45:10;;;;;;;0.57;0.40;;;;;;;;;;5421218;26;20067;-51
2024/04/10 08:47:37;;;;;;;0.57;0.50;;;;;;;;;;5421109;25;20015;-55
2024/04/10 08:50:04;;;;;;;0.85;0.50;;;;;;;;;;5422952;25;20096;-52
2024/04/10 08:52:31;;;;;;;0.70;0.50;;;;;;;;;;5424152;25;20009;-49
2024/04/10 08:54:58;;;;;;;0.73;0.50;;;;;;;;;;5422025;25;20006;-55
2024/04/10 08:57:24;;;;;;;0.35;0.35;;;;;;;;;;5422545;25;19995;-48
2024/04/10 08:59:51;;;;;;;0.70;0.38;;;;;;;;;;5422582;25;19990;-52
2024/04/10 09:02:18;;;;;;;0.55;0.40;;;;;;;;;;5422874;26;20727;-52
2024/04/10 09:04:47;;;;;;;0.43;0.30;;;;;;;;;;5422385;25;19999;-51
2024/04/10 09:07:18;;;;;;;0.40;0.35;;;;;;;;;;5419559;25;20013;-51
2024/04/10 09:09:44;;;;;;;1.27;0.32;;;;;;;;;;5422359;25;20022;-51
2024/04/10 09:12:11;;;;;;;0.50;0.30;;;;;;;;;;5421097;25;20062;-48
2024/04/10 09:14:38;;;;;;;0.43;0.30;;;;;;;;;;5423992;25;20463;-49
2024/04/10 09:17:05;;;;;;;0.73;0.40;;;;;;;;;;5421769;26;20151;-52
2024/04/10 09:19:32;;;;;;;0.28;0.20;;;;;;;;;;5422572;25;20103;-51
2024/04/10 09:24:34;;;;;;;0.40;0.40;;;;;;;;;;4926382;21;20015;-53
2024/04/10 09:27:02;;;;;;;0.30;0.30;;;;;;;;;;5361780;26;20102;-55
2024/04/10 09:29:32;;;;;;;0.57;0.30;;;;;;;;;;5360604;26;20063;-54
2024/04/10 09:32:04;;;;;;;0.60;0.43;;;;;;;;;;5357947;26;20004;-50
2024/04/10 09:34:31;;;;;;;0.20;0.13;;;;;;;;;;5359396;26;20000;-54
2024/04/10 09:36:57;;;;;;;0.13;0.13;;;;;;;;;;5359350;26;20354;-53
2024/04/10 09:39:24;;;;;;;0.25;0.15;;;;;;;;;;5357986;26;20085;-51
2024/04/10 09:41:58;;;;;;;0.65;0.40;;;;;;;;;;5359364;26;20000;-50
2024/04/10 09:44:27;;;;;;;0.30;0.28;;;;;;;;;;5360292;26;20055;-52
2024/04/10 09:46:58;;;;;;;0.35;0.30;;;;;;;;;;5360212;26;20008;-55
2024/04/10 09:49:29;;;;;;;0.52;0.35;;;;;;;;;;5360173;26;20004;-51
2024/04/10 09:51:55;;;;;;;;;;;;;;;;;;5360106;26;20191;-53
2024/04/10 09:54:22;;;;;;;0.10;0.10;;;;;;;;;;5358628;26;19932;-51
2024/04/10 09:56:48;;;;;;;0.20;0.17;;;;;;;;;;5357540;26;20004;-53
2024/04/10 09:59:19;;;;;;;0.35;0.28;;;;;;;;;;5359654;26;20434;-53
2024/04/10 10:01:48;;;;;;;0.20;0.20;;;;;;;;;;5357830;26;20015;-57
2024/04/10 10:04:14;;;;;;;0.20;0.20;;;;;;;;;;5358156;26;20038;-55
2024/04/10 10:06:41;;;;;;;0.30;0.20;;;;;;;;;;5358120;26;20847;-56
2024/04/10 10:09:08;;;;;;;0.20;0.20;;;;;;;;;;5357838;26;20015;-52
2024/04/10 10:11:34;;;;;;;0.30;0.30;;;;;;;;;;5357010;26;20000;-56
2024/04/10 10:14:03;;;;;;;0.45;0.25;;;;;;;;;;5359587;26;20470;-52
2024/04/10 10:16:32;;;;;;;0.20;0.15;;;;;;;;;;5358723;26;20324;-54
2024/04/10 10:19:00;;;;;;;0.63;0.20;;;;;;;;;;5362275;26;20073;-53
2024/04/10 10:21:27;;;;;;;0.90;0.28;;;;;;;;;;5361936;26;20028;-55
2024/04/10 10:23:58;;;;;;;0.32;0.20;;;;;;;;;;5360129;26;19996;-54
2024/04/10 10:26:25;;;;;;;0.10;0.10;;;;;;;;;;5362921;26;20003;-56
2024/04/10 10:29:01;;;;;;;0.45;0.30;;;;;;;;;;5362689;26;20004;-55
2024/04/10 10:31:27;;;;;;;0.20;0.10;;;;;;;;;;5361291;26;20364;-52
2024/04/10 10:34:04;;;;;;;1.20;0.22;;;;;;;;;;5361658;26;20102;-50
2024/04/10 10:36:34;;;;;;;0.35;0.10;;;;;;;;;;5362951;26;19992;-52
2024/04/10 10:39:13;;;;;;;0.30;0.10;;;;;;;;;;5361408;26;19992;-51
2024/04/10 10:41:40;;;;;;;0.17;0.10;;;;;;;;;;5389221;26;20012;-52
2024/04/10 10:44:07;;;;;;;0.28;0.10;;;;;;;;;;5362131;26;19996;-53
2024/04/10 10:46:34;;;;;;;0.35;0.13;;;;;;;;;;5362281;26;20332;-55
2024/04/10 10:49:04;;;;;;;0.20;0.10;;;;;;;;;;5359804;26;20000;-49
2024/04/10 10:51:31;;;;;;;0.17;0.10;;;;;;;;;;5360209;26;20000;-50
2024/04/10 10:53:58;;;;;;;0.20;0.20;;;;;;;;;;5361292;26;20015;-53
2024/04/10 10:56:28;;;;;;;0.35;0.20;;;;;;;;;;5362540;26;20165;-54
2024/04/10 10:58:55;;;;;;;0.25;0.20;;;;;;;;;;5362528;26;20016;-49
2024/04/10 11:01:21;;;;;;;0.38;0.20;;;;;;;;;;5360966;26;21011;-50
2024/04/10 11:03:48;;;;;;;0.20;0.20;;;;;;;;;;5362224;26;20086;-55
2024/04/10 11:06:16;;;;;;;0.20;0.20;;;;;;;;;;5362297;26;20000;-56
2024/04/10 11:08:43;;;;;;;0.10;0.10;;;;;;;;;;5361829;26;20044;-57
2024/04/10 11:11:14;;;;;;;0.20;0.10;;;;;;;;;;5360653;26;20083;-56
2024/04/10 11:13:50;;;;;;;0.13;0.13;;;;;;;;;;5361353;26;20046;-57
2024/04/10 11:16:31;;;;;;;0.00;0.00;;;;;;;;;;5362399;26;20459;-55
2024/04/10 11:18:58;;;;;;;0.25;0.10;;;;;;;;;;5361783;26;20331;-58
2024/04/10 11:21:25;;;;;;;0.10;0.10;;;;;;;;;;5361324;26;20086;-58
2024/04/10 11:23:52;;;;;;;1.35;0.30;;;;;;;;;;5359946;26;20054;-58
2024/04/10 11:26:19;;;;;;;0.10;0.10;;;;;;;;;;5361995;26;19996;-57
2024/04/10 11:28:46;;;;;;;0.20;0.10;;;;;;;;;;5360839;26;20023;-55
2024/04/10 11:31:15;;;;;;;0.75;0.10;;;;;;;;;;5360770;26;20003;-57
2024/04/10 11:33:41;;;;;;;0.00;0.00;;;;;;;;;;5361814;26;20023;-56
2024/04/10 11:36:08;;;;;;;0.30;0.10;;;;;;;;;;5360052;26;21087;-50
2024/04/10 11:38:37;;;;;;;0.10;0.10;;;;;;;;;;5361544;26;20001;-55
2024/04/10 11:41:08;;;;;;;0.30;0.20;;;;;;;;;;5360267;26;20015;-56
2024/04/10 11:43:35;;;;;;;0.32;0.20;;;;;;;;;;5361070;26;20546;-55
2024/04/10 11:46:05;;;;;;;0.10;0.10;;;;;;;;;;5359693;26;20035;-55
2024/04/10 11:48:31;;;;;;;0.63;0.20;;;;;;;;;;5361121;26;20004;-54
2024/04/10 11:50:59;;;;;;;0.17;0.10;;;;;;;;;;5359867;26;20297;-55
2024/04/10 11:53:26;;;;;;;0.00;0.00;;;;;;;;;;5341309;26;19996;-52
2024/04/10 11:55:53;;;;;;;0.30;0.10;;;;;;;;;;5359806;26;20178;-57
2024/04/10 11:58:20;;;;;;;0.20;0.15;;;;;;;;;;5344729;26;20000;-55
2024/04/10 12:00:47;;;;;;;0.50;0.10;;;;;;;;;;5359561;26;20000;-56
2024/04/10 12:03:13;;;;;;;0.45;0.10;;;;;;;;;;5360849;26;20018;-52
2024/04/10 12:05:40;;;;;;;0.38;0.10;;;;;;;;;;5360063;26;20348;-56
2024/04/10 12:08:07;;;;;;;0.10;0.10;;;;;;;;;;5360411;26;20008;-55
2024/04/10 12:10:34;;;;;;;0.10;0.10;;;;;;;;;;5359121;26;20004;-54
2024/04/10 12:13:03;;;;;;;0.17;0.10;;;;;;;;;;5358641;26;20158;-51
2024/04/10 12:15:30;;;;;;;0.47;0.40;;;;;;;;;;5361036;26;19997;-53
2024/04/10 12:17:56;;;;;;;0.40;0.30;;;;;;;;;;5360323;26;21062;-53
2024/04/10 12:20:23;;;;;;;0.60;0.38;;;;;;;;;;5358968;26;20478;-55
2024/04/10 12:22:50;;;;;;;0.90;0.50;;;;;;;;;;5342862;26;20019;-56
2024/04/10 12:25:18;;;;;;;1.27;0.60;;;;;;;;;;5360336;26;20068;-53
2024/04/10 12:27:46;;;;;;;0.82;0.50;;;;;;;;;;5361207;26;20008;-54
2024/04/10 12:30:13;;;;;;;2.78;0.88;;;;;;;;;;5359899;26;20809;-53
2024/04/10 12:32:40;;;;;;;1.15;0.63;;;;;;;;;;5359761;26;20324;-59
2024/04/10 12:38:05;;;;;;;1.63;1.13;;;;;;;;;;5361092;26;20100;-57
2024/04/10 12:40:31;;;;;;;2.45;1.13;;;;;;;;;;5356483;26;20015;-57
2024/04/10 12:42:58;;;;;;;1.70;1.20;;;;;;;;;;5360172;26;20060;-55
2024/04/10 12:45:24;;;;;;;1.60;1.10;;;;;;;;;;5359920;26;20314;-55
2024/04/10 12:47:51;;;;;;;1.25;1.10;;;;;;;;;;5360483;26;20023;-54
2024/04/10 12:50:18;;;;;;;8.20;5.70;;;;;;;;;;5359244;26;20012;-56
2024/04/10 12:52:45;;;;;;;21.90;15.00;;;;;;;;;;5359423;26;20000;-55
2024/04/10 12:55:11;;;;;;;30.92;22.10;;;;;;;;;;5360397;26;19992;-53
2024/04/10 12:57:38;;;;;;;41.83;30.30;;;;;;;;;;5359029;26;20371;-54
2024/04/10 13:00:05;;;;;;;51.38;36.75;;;;;;;;;;5359123;26;20008;-57
2024/04/10 13:02:32;;;;;;;54.47;40.65;;;;;;;;;;5357870;26;20428;-57
2024/04/10 13:04:58;;;;;;;64.90;48.58;;;;;;;;;;5358771;26;20022;-57
2024/04/10 13:07:25;;;;;;;69.82;52.45;;;;;;;;;;5359224;26;20004;-55
2024/04/10 13:09:52;;;;;;;72.53;54.20;;;;;;;;;;5360001;26;20008;-54
2024/04/10 13:12:19;;;;;;;72.05;54.47;;;;;;;;;;5358344;26;20000;-54
2024/04/10 13:14:45;;;;;;;69.82;53.17;;;;;;;;;;5359069;26;20419;-54
2024/04/10 13:17:12;;;;;;;64.53;48.80;;;;;;;;;;5358077;26;20011;-57
2024/04/10 13:19:39;;;;;;;58.83;45.15;;;;;;;;;;5359681;26;20010;-53
2024/04/10 13:22:05;;;;;;;55.45;43.13;;;;;;;;;;5358381;26;20023;-56
2024/04/10 13:24:34;;;;;;;53.17;40.75;;;;;;;;;;5360812;26;20033;-58
2024/04/10 13:27:01;;;;;;;49.20;38.30;;;;;;;;;;5359631;26;20005;-56
2024/04/10 13:29:27;;;;;;;47.80;36.58;;;;;;;;;;5360839;26;20000;-58
2024/04/10 13:31:54;;;;;;;46.83;35.88;;;;;;;;;;5358374;26;20019;-55
2024/04/10 13:34:21;;;;;;;44.20;34.47;;;;;;;;;;5359864;26;20007;-53
2024/04/10 13:36:48;;;;;;;39.30;31.40;;;;;;;;;;5358781;26;20177;-57
2024/04/10 13:39:15;;;;;;;38.17;29.90;;;;;;;;;;5359172;26;20418;-54
2024/04/10 13:41:42;;;;;;;39.58;30.83;;;;;;;;;;5359152;26;20004;-53
2024/04/10 13:44:08;;;;;;;45.65;35.83;;;;;;;;;;5359430;26;19997;-54
2024/04/10 13:46:37;;;;;;;51.60;40.85;;;;;;;;;;5358831;26;20008;-54
2024/04/10 13:49:04;;;;;;;64.82;51.95;;;;;;;;;;5360300;26;20527;-58
2024/04/10 13:51:30;;;;;;;72.72;58.20;;;;;;;;;;5355309;26;20744;-55
2024/04/10 13:53:57;;;;;;;78.70;63.00;;;;;;;;;;5359184;26;19997;-57
2024/04/10 13:56:24;;;;;;;82.25;65.05;;;;;;;;;;5358726;26;20345;-56
2024/04/10 13:58:52;;;;;;;77.05;63.35;;;;;;;;;;5358864;26;20051;-56
2024/04/10 14:01:22;;;;;;;77.80;61.97;;;;;;;;;;5357530;26;20000;-53
2024/04/10 14:03:51;;;;;;;72.10;58.42;;;;;;;;;;5359864;26;20349;-53
2024/04/10 14:06:23;;;;;;;69.07;56.20;;;;;;;;;;5358243;26;20004;-51
2024/04/10 14:08:49;;;;;;;62.42;51.67;;;;;;;;;;5358916;26;20011;-52
2024/04/10 14:11:17;;;;;;;61.15;49.90;;;;;;;;;;5357721;26;20000;-55
2024/04/10 14:13:44;;;;;;;57.78;45.58;;;;;;;;;;5357758;26;20000;-53
2024/04/10 14:16:11;;;;;;;55.90;46.03;;;;;;;;;;5358275;26;20019;-56
2024/04/10 14:18:38;;;;;;;53.97;43.42;;;;;;;;;;5358550;26;20048;-56
2024/04/10 14:21:05;;;;;;;52.15;42.88;;;;;;;;;;5357913;26;22288;-54
2024/04/10 14:23:33;;;;;;;51.90;42.58;;;;;;;;;;5357562;26;20016;-56
2024/04/10 14:26:02;;;;;;;48.78;39.60;;;;;;;;;;5356136;26;21023;-54
2024/04/10 14:28:30;;;;;;;47.25;39.03;;;;;;;;;;5358773;26;20015;-53
2024/04/10 14:31:00;;;;;;;45.28;37.13;;;;;;;;;;5357203;26;20004;-54
2024/04/10 14:33:31;;;;;;;41.05;35.60;;;;;;;;;;5358396;26;20016;-53
2024/04/10 14:35:57;;;;;;;;;;;;;;;;;;5358600;26;20027;-56
2024/04/10 14:38:25;;;;;;;40.13;33.08;;;;;;;;;;5359379;26;19945;-55
2024/04/10 14:40:52;;;;;;;38.20;31.75;;;;;;;;;;5358079;26;20000;-56
2024/04/10 14:43:18;;;;;;;35.97;30.40;;;;;;;;;;5358024;26;20008;-54